Rumney, New Hampshire
Current Conditions -  °F | °C
As of 5:35 PM on Monday 20 Oct 2014 (Local Time) from K1P1 Reporting Station
Broken Clouds Broken Clouds  
Wind Chill: 48°   Ceiling: 9000
Heat Index: 48°   Visibility: 10mi
Dew Point: 42°   Wind: 0mph
Humidity: 78%   Direction: NA
Pressure: 29.94"   Gusts: NA
Location:  43.81°N, 71.81°W
Report Text: K1P1 202135Z AUTO 00000KT 10SM BKN090 09/05 A2994 RMK AO2 T00900053
Loading
Personal Weather Stations






























Interactive Weather Map New forecast layout! Learn more

10-Day Weather Forecast

Advertisements
Track Severe Weather on mobile